Aeroporto :
LOGIN :

Iscrizione | Disclaimer

   EN    FR    IT 

 










Sommario :    VFR   VFR Marginale   IFR   IFR Intensivo   IFR Molto Intensivo
Visibilità : 
Base nubi : 
>= 8 km
>= 3000ft
5 / 8 km
1000 / 3000 ft
1500m / 5 km
500 / 1000 ft
800 / 1500m
200 / 500 ft
< 800m
< 200 ft
Simboli :   Temporali  Nebbia  Neve Forte  Precipitazioni Forti  Vento > 20 kt
SIGMETs :   Varie  Temporali  Ghiacco  Turbolenza  Onda orograficha  Ceneri Vulcaniche






- Altitudine del aeroporto : 1302 ft
- Codice IATA : GNB


LFLS - Grenoble / St. Geoirs

ULTIMO METAR :
  • 132300Z AUTO 08007KT CAVOK 18/17 Q1017

METARs OBSOLETI :
  • 132230Z AUTO 07008KT CAVOK 18/17 Q1017
  • 132200Z AUTO 07007KT 9999 SCT062 BKN130 BKN180 19/17 Q1017
  • 132130Z AUTO 07009KT 9999 FEW060 SCT130 OVC190 19/17 Q1017
  • 132100Z AUTO 07010KT 9999 FEW056 BKN120 BKN190 19/17 Q1017
  • 132030Z AUTO 06009KT CAVOK 19/17 Q1017

TAF TAF LFLS
Valido dal 13 a 15 ore il 14 a 15 ore UTC


131400Z 1315/1415 22009KT CAVOK
TEMPO 1315/1320 VRB12KT SHRA SCT065TCU
PROB40
TEMPO 1315/1319 VRB15G30KT 4000 TSRA BKN060CB
BECMG 1401/1405 VRB02KT BKN035
BECMG 1409/1413 34009KT SCT045
ATIS : +33 4 76 65 55 89



MetMap, La meteo Aeronautica in un colpo d'occhio ! - Copyright ORBIFLY Dicembre 2007 - Disclaimer

ORBIFLY MET'MAP TEAM :

Programmazione e sviluppo : Alexandra Zaïnal
Concezione : Baudouin d'Aumeries
Aiuto per la programmazione : Marc-Olivier Méhu
Supporto tecnico e logistico : Manuel Goepfert
Aiuto per la traduzione : Arnaldo La Scala

Contatto : metmap@orbifly.com




FONTI E CREDITI :

   NOAA